Airport View

Enter AWOS ICAO identifier for current METAR.

ex. KFNL

KMVN 170956Z AUTO 00000KT 3SM BR CLR M05/M06 A3011 RMK AO2 SLP206 T10501056 FZRANO

17 Nov 2019 10:37

Frequency: 113.8

Phone: 618-242-7933

Other Area AWOS: KENL - KSLO - KFWC - KFOA

TAF KBLV 170800Z 1708/1814 VRB06KT 9000 BR BKN100 QNH2989INS BECMG 1723/1800 VRB06KT 9000 BR BKN020 QNH2984INS BECMG 1801/1802 VRB06KT 9000 BR BKN010 QNH2984INS BECMG 1803/1804 VRB06KT 8000 BR BKN006 QNH2983INS TX08/1719Z TNM04/1710Z